x

Portland 12 Nm Southeast Of Portland,me (44007) Wave Buoy

5:50 - Fri 12th Feb 2016 All times are EST. -5 hours from GMT.

  • Sig Wave height 1.6ft
  • Swell Direction
  • Peak Period 11s
  • Average Period 4s
  • Wind
    16mph, 22mph gusts
  • Sea Temp 40°f
  • Air Temp 8°f
  • Sea Pressure 1019.2mb
  • Portland 12 Nm Southeast Of Portland,me
  • Portland 12 Nm Southeast Of Portland,me

More Historic Weather Station data

Upgrade to MSW Pro to gain access to the past 30 days of data for over 8000 Wavebouys and Weather Stations around the globe.

Join Pro

Comparision Forecast

View Surf forecast
   
ven. 02/12 5:50 1.6ft 11s 4s 16 22 mph 1019.2mb 40f 8f
4:50 1.6ft 11s 4s 16 20 mph 1018.5mb 40f 8f
3:50 2.5ft 12s 4s 16 20 mph 1017.6mb 40f 7f
2:50 2ft 11s 4s 18 25 mph 1016.7mb 40f 8f
1:50 2.5ft 11s 4s 18 25 mph 1015.8mb 40f 8f
12:50 2.5ft 12s 4s 20 27 mph 1014.6mb 40f 10f
jeu. 02/11 11:50 3ft 3s 4s 20 27 mph 1013.6mb 40f 11f
10:50 3ft 4s 4s 18 22 mph 1012.5mb 40f 14f
9:50 3ft 12s 4s 18 25 mph 1011.4mb 40f 16f
8:50 3ft 13s 4s 22 27 mph 1010.4mb 40f 18f
7:50 2.5ft 11s 5s 25 29 mph 1009.1mb 40f 21f
6:50 3ft 11s 5s 22 27 mph 1008mb 40f 22f
5:50 3ft 11s 5s 22 27 mph 1006.6mb 40f 23f
4:50 3ft 12s 5s 20 25 mph 1005.2mb 40f 24f
3:50 2.5ft 12s 7s 18 22 mph 1004.1mb 40f 26f
2:50 2.5ft 11s 8s 13 18 mph 1003.5mb 40f 26f
1:50 2.5ft 12s 7s 9 13 mph 1003.1mb 41f 27f
12:50 2.5ft 10s 7s 4 11 mph 1003.3mb 40f 28f
11:50 2.5ft 11s 7s 7 9 mph 1004mb 40f 28f
10:50 3ft 10s 7s 2 4 mph 1004.4mb 40f 28f
6:50 3.5ft 10s 6s 16 18 mph 1003.8mb 40f 27f
5:50 3.5ft 10s 6s 13 18 mph 1003.4mb 40f 27f
4:50 3.5ft 10s 6s 11 16 mph 1003.1mb 40f 28f
3:50 3.5ft 11s 6s 16 18 mph 1002mb 40f 28f
2:50 3.5ft 11s 6s 20 25 mph 1001.9mb 40f 30f
1:50 3.5ft 11s 5s 18 22 mph 1001.6mb 40f 31f
12:50 3ft 11s 5s 18 22 mph 1000.8mb 40f 32f
mer. 02/10 11:50 3.5ft 11s 5s 20 25 mph 1000.3mb 40f 33f
10:50 3.5ft 10s 5s 22 25 mph 1000.3mb 40f 34f
9:50 3.5ft 12s 6s 20 22 mph 1000.5mb 40f 35f
8:50 4.5ft 12s 7s 16 20 mph 1001.2mb 40f 35f
7:50 4ft 11s 7s 18 20 mph 1001.2mb 40f 35f
6:50 4ft 12s 7s 13 16 mph 1001.4mb 40f 35f
5:50 4.5ft 11s 7s 13 16 mph 1001.2mb 40f 35f
4:50 4.5ft 11s 7s 11 13 mph 1000.7mb 41f 35f
3:50 3.5ft 11s 6s 13 16 mph 1000.3mb 41f 34f
2:50 3.5ft 11s 6s 13 16 mph 1000mb 41f 34f
1:50 3ft 11s 6s 13 16 mph 999.9mb 41f 33f
12:50 3.5ft 11s 6s 13 16 mph 1000.4mb 41f 33f
11:50 3.5ft 11s 6s 13 18 mph 1001.2mb 41f 32f
10:50 3.5ft 11s 6s 16 18 mph 1002mb 41f 31f
9:50 3.5ft 11s 6s 13 16 mph 1002.4mb 41f 31f
8:50 3.5ft 10s 7s 13 16 mph 1002.8mb 40f 30f
7:50 4ft 10s 8s 11 16 mph 1003mb 40f 29f
6:50 4.5ft 11s 9s 13 16 mph 1002.6mb 40f 31f
5:50 5ft 10s 9s 7 9 mph 1002.3mb 40f 30f
4:50 4.5ft 12s 9s 2 7 mph 1002mb 40f 29f
3:50 5ft 11s 9s 2 4 mph 1002.2mb 40f 28f
2:50 5ft 13s 9s 2 4 mph 1002.3mb 40f 26f
1:50 5ft 11s 9s 2 4 mph 1002.5mb 41f 26f
12:50 4.5ft 12s 8s 7 9 mph 1002.2mb 40f 26f
mar. 02/09 11:50 4.5ft 13s 8s 7 9 mph 1002.5mb 41f 25f
10:50 5ft 13s 8s 4 7 mph 1002.6mb 41f 25f
9:50 5ft 13s 8s 4 9 mph 1003.2mb 40f 25f
8:50 5ft 14s 8s 7 9 mph 1002.8mb 40f 25f
7:50 6.5ft 14s 9s 7 11 mph 1003.3mb 41f 25f
6:50 7ft 14s 9s 11 16 mph 1003.4mb 41f 26f
5:50 8ft 11s 9s 9 13 mph 1003.4mb 41f 26f
4:50 8ft 13s 10s 9 13 mph 1003mb 41f 26f
3:50 9ft 13s 10s 13 20 mph 1002.1mb 41f 26f
2:50 9ft 13s 10s 11 16 mph 1002.2mb 41f 25f
1:50 8.5ft 13s 10s 16 20 mph 1002.3mb 41f 24f
12:50 9ft 13s 10s 11 18 mph 1003.7mb 41f 24f
11:50 9.5ft 13s 10s 11 18 mph 1004.2mb 41f 23f
10:50 9ft 15s 9s 11 16 mph 1006mb 41f 23f
9:50 10ft 14s 9s 7 11 mph 1006.7mb 40f 22f
8:50 9.5ft 13s 9s 9 13 mph 1007.3mb 40f 21f
7:50 10ft 13s 9s 18 22 mph 1005.2mb 40f 22f
6:50 12ft 13s 9s 13 18 mph 1007.1mb 40f 22f
5:50 11.5ft 14s 9s 13 18 mph 1007.4mb 41f 22f
4:50 12ft 13s 9s 18 22 mph 1007.5mb 41f 22f
3:50 13ft 13s 9s 20 27 mph 1007.3mb 41f 22f
2:50 11ft 14s 8s 22 27 mph 1007.5mb 41f 22f
1:50 11ft 12s 8s 27 34 mph 1007.4mb 41f 22f
12:50 11.5ft 12s 8s 25 31 mph 1007.8mb 41f 22f
lun. 02/08 11:50 10ft 12s 7s 25 31 mph 1008.2mb 41f 23f
10:50 12ft 11s 7s 27 34 mph 1008.1mb 41f 22f
9:50 10ft 11s 7s 29 36 mph 1008.2mb 41f 22f
8:50 12.5ft 11s 8s 29 36 mph 1008.5mb 41f 22f
7:50 10ft 10s 7s 29 36 mph 1008.6mb 41f 22f
6:50 10.5ft 10s 7s 29 36 mph 1008.1mb 41f 22f
5:50 11ft 10s 7s 31 40 mph 1007.7mb 41f 23f
4:50 10.5ft 10s 6s 34 43 mph 1007.2mb 41f 23f
3:50 9.5ft 10s 6s 34 40 mph 1007.5mb 41f 23f
2:50 9ft 9s 6s 34 40 mph 1007.9mb 41f 22f
1:50 8ft 9s 6s 34 40 mph 1008.5mb 41f 22f
12:50 8.5ft 9s 6s 34 40 mph 1009.4mb 42f 21f